Time,TemperatureF,DewpointF,PressureIn,WindDirection,WindDirectionDegrees,WindSpeedMPH,WindSpeedGustMPH,Humidity,HourlyPrecipIn,Conditions,Clouds,dailyrainin,SoftwareType,DateUTC
2013-10-16 00:01:00,47.8,45.3,29.77,SSW,206,0.0,0.0,91,0.00,,---,0.00,VWS V14.01,2013-10-15 22:01:00,
2013-10-16 00:06:00,47.7,45.2,29.77,SSW,206,0.0,0.0,91,0.00,,---,0.00,VWS V14.01,2013-10-15 22:06:00,
2013-10-16 00:11:00,47.8,45.3,29.77,SSW,206,0.0,0.0,91,0.00,,---,0.00,VWS V14.01,2013-10-15 22:11:00,
2013-10-16 00:16:00,47.7,45.2,29.77,SSW,206,4.0,4.0,91,0.00,,---,0.00,VWS V14.01,2013-10-15 22:16:00,
2013-10-16 00:21:00,47.7,45.2,29.77,SSW,206,4.0,4.0,91,0.00,,---,0.00,VWS V14.01,2013-10-15 22:21:00,
2013-10-16 00:27:00,47.5,45.0,29.77,SSW,206,4.0,4.5,91,0.00,,---,0.00,VWS V14.01,2013-10-15 22:27:00,
2013-10-16 00:32:00,47.3,45.1,29.77,SSW,206,3.1,3.1,92,0.00,,---,0.00,VWS V14.01,2013-10-15 22:32:00,
2013-10-16 00:37:00,47.1,44.9,29.77,SSW,206,0.0,2.7,92,0.00,,---,0.00,VWS V14.01,2013-10-15 22:37:00,
2013-10-16 00:42:00,46.8,44.6,29.77,SSW,206,0.0,0.0,92,0.00,,---,0.00,VWS V14.01,2013-10-15 22:42:00,
2013-10-16 00:47:00,46.4,44.2,29.77,SSW,206,3.6,4.0,92,0.00,,---,0.00,VWS V14.01,2013-10-15 22:47:00,
2013-10-16 00:52:00,46.4,44.2,29.77,SSW,206,3.1,4.0,92,0.00,,---,0.00,VWS V14.01,2013-10-15 22:52:00,
2013-10-16 00:57:00,46.4,44.2,29.77,SSW,207,3.6,4.0,92,0.00,,---,0.00,VWS V14.01,2013-10-15 22:57:00,
2013-10-16 01:02:00,46.4,44.2,29.77,SSW,207,0.0,0.0,92,0.00,,---,0.00,VWS V14.01,2013-10-15 23:02:00,
2013-10-16 01:07:00,46.4,44.5,29.77,SSW,207,0.0,0.0,93,0.00,,---,0.00,VWS V14.01,2013-10-15 23:07:00,
2013-10-16 01:12:00,46.6,44.7,29.77,SSW,207,0.0,0.0,93,0.00,,---,0.00,VWS V14.01,2013-10-15 23:12:00,
2013-10-16 01:17:00,46.6,44.7,29.77,SSW,207,0.0,0.0,93,0.00,,---,0.00,VWS V14.01,2013-10-15 23:17:00,
2013-10-16 01:22:00,46.4,44.5,29.77,SSW,207,0.0,0.0,93,0.00,,---,0.00,VWS V14.01,2013-10-15 23:22:00,
2013-10-16 01:27:00,46.2,44.3,29.77,SSW,207,0.0,0.0,93,0.00,,---,0.00,VWS V14.01,2013-10-15 23:27:00,
2013-10-16 01:32:00,46.2,44.3,29.77,SSW,207,0.0,0.0,93,0.00,,---,0.00,VWS V14.01,2013-10-15 23:32:00,
2013-10-16 01:37:00,46.2,44.3,29.77,SSW,207,2.7,3.6,93,0.00,,---,0.00,VWS V14.01,2013-10-15 23:37:00,
2013-10-16 01:42:00,46.0,44.1,29.77,SSW,207,0.0,0.0,93,0.00,,---,0.00,VWS V14.01,2013-10-15 23:42:00,
2013-10-16 01:47:00,46.0,44.1,29.77,SSW,207,0.0,2.7,93,0.00,,---,0.00,VWS V14.01,2013-10-15 23:47:00,
2013-10-16 01:52:00,46.2,44.6,29.77,SSW,207,0.0,0.0,94,0.00,,---,0.00,VWS V14.01,2013-10-15 23:52:00,
2013-10-16 01:57:00,46.2,44.6,29.77,SSW,207,3.6,3.6,94,0.00,,---,0.00,VWS V14.01,2013-10-15 23:57:00,
2013-10-16 02:02:00,46.2,44.6,29.77,SSW,207,4.0,4.5,94,0.00,,---,0.00,VWS V14.01,2013-10-16 00:02:00,
2013-10-16 02:07:00,46.2,44.6,29.74,SSW,207,4.0,4.5,94,0.00,,---,0.00,VWS V14.01,2013-10-16 00:07:00,
2013-10-16 02:12:00,46.4,44.8,29.74,SSW,207,0.0,3.6,94,0.00,,---,0.00,VWS V14.01,2013-10-16 00:12:00,
2013-10-16 02:17:00,46.4,44.8,29.74,SSW,207,4.0,4.5,94,0.00,,---,0.00,VWS V14.01,2013-10-16 00:17:00,
2013-10-16 02:22:00,46.4,44.8,29.74,SSW,207,3.6,4.0,94,0.00,,---,0.00,VWS V14.01,2013-10-16 00:22:00,
2013-10-16 02:27:00,46.6,45.2,29.74,SSW,207,0.0,0.0,95,0.00,,---,0.00,VWS V14.01,2013-10-16 00:27:00,
2013-10-16 02:32:00,46.8,45.4,29.74,SSW,207,2.7,3.1,95,0.00,,---,0.00,VWS V14.01,2013-10-16 00:32:00,
2013-10-16 02:37:00,46.9,45.6,29.74,SSW,207,0.0,2.7,95,0.00,,---,0.00,VWS V14.01,2013-10-16 00:37:00,
2013-10-16 02:42:00,47.1,45.8,29.74,SSW,207,0.0,0.0,95,0.00,,---,0.00,VWS V14.01,2013-10-16 00:42:00,
2013-10-16 02:47:00,46.8,45.4,29.74,SSW,207,0.0,0.0,95,0.00,,---,0.00,VWS V14.01,2013-10-16 00:47:00,
2013-10-16 02:52:00,46.9,45.6,29.71,SSW,207,3.6,3.6,95,0.00,,---,0.00,VWS V14.01,2013-10-16 00:52:00,
2013-10-16 02:57:00,46.9,45.6,29.71,SSW,207,0.0,0.0,95,0.00,,---,0.00,VWS V14.01,2013-10-16 00:57:00,
2013-10-16 03:02:00,46.8,45.4,29.71,SSW,207,0.0,0.0,95,0.00,,---,0.00,VWS V14.01,2013-10-16 01:02:00,
2013-10-16 03:07:00,46.8,45.4,29.71,SSW,207,0.0,0.0,95,0.00,,---,0.00,VWS V14.01,2013-10-16 01:07:00,
2013-10-16 03:12:00,46.9,45.6,29.71,SSW,207,5.4,5.4,95,0.00,,---,0.00,VWS V14.01,2013-10-16 01:12:00,
2013-10-16 03:17:00,47.1,46.0,29.71,SSW,207,4.0,4.9,96,0.00,,---,0.00,VWS V14.01,2013-10-16 01:17:00,
2013-10-16 03:22:00,46.9,45.9,29.71,SSW,207,0.0,0.0,96,0.00,,---,0.00,VWS V14.01,2013-10-16 01:22:00,
2013-10-16 03:27:00,47.1,46.0,29.71,SSW,207,0.0,2.7,96,0.00,,---,0.00,VWS V14.01,2013-10-16 01:27:00,
2013-10-16 03:32:00,47.3,46.2,29.71,SSW,207,0.0,0.0,96,0.00,,---,0.00,VWS V14.01,2013-10-16 01:32:00,
2013-10-16 03:37:00,47.1,46.0,29.71,SSW,207,4.0,4.5,96,0.00,,---,0.00,VWS V14.01,2013-10-16 01:37:00,
2013-10-16 03:42:00,47.3,46.2,29.71,SSW,207,3.6,4.5,96,0.00,,---,0.00,VWS V14.01,2013-10-16 01:42:00,
2013-10-16 03:47:00,47.5,46.4,29.71,SSW,207,4.5,4.5,96,0.00,,---,0.00,VWS V14.01,2013-10-16 01:47:00,
2013-10-16 03:52:00,47.7,46.6,29.68,West,273,4.0,4.9,96,0.00,,---,0.00,VWS V14.01,2013-10-16 01:52:00,
2013-10-16 03:57:00,47.5,46.4,29.68,West,276,2.7,4.5,96,0.00,,---,0.00,VWS V14.01,2013-10-16 01:57:00,
2013-10-16 04:02:00,47.3,46.2,29.68,West,277,0.0,0.0,96,0.00,,---,0.00,VWS V14.01,2013-10-16 02:02:00,
2013-10-16 04:07:00,47.1,46.0,29.68,West,277,0.0,0.0,96,0.00,,---,0.00,VWS V14.01,2013-10-16 02:07:00,
2013-10-16 04:12:00,47.3,46.2,29.68,West,277,0.0,3.1,96,0.00,,---,0.00,VWS V14.01,2013-10-16 02:12:00,
2013-10-16 04:17:00,47.3,46.2,29.68,West,277,3.6,3.6,96,0.00,,---,0.00,VWS V14.01,2013-10-16 02:17:00,
2013-10-16 04:22:00,47.5,46.4,29.68,West,277,0.0,0.0,96,0.00,,---,0.00,VWS V14.01,2013-10-16 02:22:00,
2013-10-16 04:27:00,47.7,46.6,29.68,West,277,0.0,0.0,96,0.00,,---,0.00,VWS V14.01,2013-10-16 02:27:00,
2013-10-16 04:32:00,47.5,46.4,29.68,West,277,0.0,0.0,96,0.00,,---,0.00,VWS V14.01,2013-10-16 02:32:00,
2013-10-16 04:37:00,47.5,46.4,29.68,West,277,0.0,0.0,96,0.00,,---,0.00,VWS V14.01,2013-10-16 02:37:00,
2013-10-16 04:42:00,47.7,46.6,29.68,West,277,0.0,0.0,96,0.00,,---,0.00,VWS V14.01,2013-10-16 02:42:00,
2013-10-16 04:47:00,47.7,46.6,29.68,West,277,0.0,0.0,96,0.00,,---,0.00,VWS V14.01,2013-10-16 02:47:00,
2013-10-16 04:52:00,47.8,46.8,29.68,West,277,4.0,4.5,96,0.00,,---,0.00,VWS V14.01,2013-10-16 02:52:00,
2013-10-16 04:57:00,48.0,46.9,29.68,WNW,299,6.3,7.4,96,0.00,,---,0.00,VWS V14.01,2013-10-16 02:57:00,
2013-10-16 05:02:00,47.8,46.8,29.68,WNW,282,0.0,0.0,96,0.00,,---,0.00,VWS V14.01,2013-10-16 03:02:00,
2013-10-16 05:07:00,47.7,46.6,29.68,West,281,3.6,3.6,96,0.00,,---,0.00,VWS V14.01,2013-10-16 03:07:00,
2013-10-16 05:12:00,47.7,46.6,29.68,NW,309,0.0,0.0,96,0.00,,---,0.00,VWS V14.01,2013-10-16 03:12:00,
2013-10-16 05:17:00,47.5,46.4,29.68,NW,313,4.0,5.4,96,0.00,,---,0.00,VWS V14.01,2013-10-16 03:17:00,
2013-10-16 05:22:00,47.5,46.4,29.65,WNW,290,4.0,4.9,96,0.00,,---,0.00,VWS V14.01,2013-10-16 03:22:00,
2013-10-16 05:27:00,47.7,46.6,29.65,West,276,4.9,5.4,96,0.00,,---,0.00,VWS V14.01,2013-10-16 03:27:00,
2013-10-16 05:32:00,47.7,46.6,29.65,West,277,0.0,3.6,96,0.00,,---,0.00,VWS V14.01,2013-10-16 03:32:00,
2013-10-16 05:37:00,47.5,46.4,29.65,WNW,282,3.6,4.0,96,0.00,,---,0.00,VWS V14.01,2013-10-16 03:37:00,
2013-10-16 05:42:00,47.5,46.4,29.65,WNW,297,0.0,2.7,96,0.00,,---,0.00,VWS V14.01,2013-10-16 03:42:00,
2013-10-16 05:47:00,47.5,46.4,29.65,WNW,297,0.0,3.6,96,0.00,,---,0.00,VWS V14.01,2013-10-16 03:47:00,
2013-10-16 05:52:00,47.5,46.4,29.65,WNW,297,0.0,0.0,96,0.00,,---,0.00,VWS V14.01,2013-10-16 03:52:00,
2013-10-16 05:58:00,47.7,46.6,29.65,WNW,297,0.0,4.0,96,0.00,,---,0.00,VWS V14.01,2013-10-16 03:58:00,
2013-10-16 06:01:00,47.7,46.6,29.65,WNW,297,0.0,0.0,96,0.00,,---,0.00,VWS V14.01,2013-10-16 04:01:00,
2013-10-16 06:02:00,47.7,46.6,29.65,WNW,298,0.0,0.0,96,0.00,,---,0.00,VWS V14.01,2013-10-16 04:02:00,
2013-10-16 06:07:00,47.8,46.8,29.65,WNW,298,3.6,3.6,96,0.00,,---,0.00,VWS V14.01,2013-10-16 04:07:00,
2013-10-16 06:12:00,48.0,46.9,29.65,West,280,4.5,5.4,96,0.00,,---,0.00,VWS V14.01,2013-10-16 04:12:00,
2013-10-16 06:17:00,48.2,47.1,29.65,WNW,282,4.9,4.9,96,0.00,,---,0.00,VWS V14.01,2013-10-16 04:17:00,
2013-10-16 06:22:00,48.2,47.1,29.65,WNW,289,4.5,4.5,96,0.00,,---,0.00,VWS V14.01,2013-10-16 04:22:00,
2013-10-16 06:27:00,48.2,47.1,29.65,West,281,3.6,4.5,96,0.00,,---,0.00,VWS V14.01,2013-10-16 04:27:00,
2013-10-16 06:32:00,48.2,47.1,29.65,West,281,2.7,3.6,96,0.00,,---,0.00,VWS V14.01,2013-10-16 04:32:00,
2013-10-16 06:37:00,48.2,47.1,29.65,West,280,4.9,4.9,96,0.00,,---,0.00,VWS V14.01,2013-10-16 04:37:00,
2013-10-16 06:42:00,48.4,47.6,29.65,West,276,5.4,5.4,97,0.00,,---,0.00,VWS V14.01,2013-10-16 04:42:00,
2013-10-16 06:47:00,48.6,47.8,29.65,West,279,4.5,4.5,97,0.00,,---,0.00,VWS V14.01,2013-10-16 04:47:00,
2013-10-16 06:52:00,48.6,47.8,29.65,West,279,0.0,3.6,97,0.00,,---,0.00,VWS V14.01,2013-10-16 04:52:00,
2013-10-16 06:57:00,48.6,47.8,29.65,WNW,283,0.0,0.0,97,0.00,,---,0.00,VWS V14.01,2013-10-16 04:57:00,
2013-10-16 07:02:00,48.6,47.8,29.65,NNW,344,4.5,4.9,97,0.00,,---,0.00,VWS V14.01,2013-10-16 05:02:00,
2013-10-16 07:07:00,48.6,47.8,29.65,NW,313,4.0,4.0,97,0.00,,---,0.00,VWS V14.01,2013-10-16 05:07:00,
2013-10-16 07:12:00,48.6,47.8,29.65,NW,310,4.9,4.9,97,0.00,,---,0.00,VWS V14.01,2013-10-16 05:12:00,
2013-10-16 07:17:00,48.7,47.9,29.65,West,279,3.6,5.8,97,0.00,,---,0.00,VWS V14.01,2013-10-16 05:17:00,
2013-10-16 07:22:00,48.9,48.1,29.65,West,276,6.7,6.7,97,0.00,,---,0.00,VWS V14.01,2013-10-16 05:22:00,
2013-10-16 07:27:00,48.9,48.1,29.65,West,279,3.1,6.3,97,0.00,,---,0.00,VWS V14.01,2013-10-16 05:27:00,
2013-10-16 07:33:00,48.9,48.1,29.65,WNW,297,2.7,4.0,97,0.00,,---,0.00,VWS V14.01,2013-10-16 05:33:00,
2013-10-16 07:38:00,48.9,48.1,29.65,NW,320,2.7,4.9,97,0.00,,---,0.00,VWS V14.01,2013-10-16 05:38:00,
2013-10-16 07:43:00,48.9,48.1,29.65,NNW,333,2.7,4.9,97,0.00,,---,0.00,VWS V14.01,2013-10-16 05:43:00,
2013-10-16 07:48:00,48.9,48.1,29.65,NNW,333,3.1,4.5,97,0.00,,---,0.00,VWS V14.01,2013-10-16 05:48:00,
2013-10-16 07:53:00,48.9,48.1,29.65,WNW,298,0.0,4.5,97,0.00,,---,0.00,VWS V14.01,2013-10-16 05:53:00,
2013-10-16 07:58:00,49.1,48.3,29.65,WNW,303,3.6,4.5,97,0.00,,---,0.00,VWS V14.01,2013-10-16 05:58:00,
2013-10-16 08:03:00,49.1,48.3,29.65,NW,304,3.1,4.0,97,0.00,,---,0.00,VWS V14.01,2013-10-16 06:03:00,
2013-10-16 08:08:00,49.1,48.3,29.65,NW,326,0.0,4.0,97,0.00,,---,0.00,VWS V14.01,2013-10-16 06:08:00,
2013-10-16 08:13:00,49.1,48.3,29.65,NNW,333,4.5,5.4,97,0.00,,---,0.00,VWS V14.01,2013-10-16 06:13:00,
2013-10-16 08:18:00,49.1,48.3,29.65,NNW,337,3.6,4.9,97,0.00,,---,0.00,VWS V14.01,2013-10-16 06:18:00,
2013-10-16 08:23:00,49.1,48.3,29.65,WNW,293,2.7,5.8,97,0.00,,---,0.00,VWS V14.01,2013-10-16 06:23:00,
2013-10-16 08:28:00,49.3,48.5,29.65,WNW,282,6.3,7.4,97,0.00,,---,0.00,VWS V14.01,2013-10-16 06:28:00,
2013-10-16 08:33:00,49.6,48.8,29.65,WNW,282,4.5,6.7,97,0.00,,---,0.00,VWS V14.01,2013-10-16 06:33:00,
2013-10-16 08:38:00,49.8,49.0,29.65,West,279,5.4,6.7,97,0.00,,---,0.00,VWS V14.01,2013-10-16 06:38:00,
2013-10-16 08:43:00,50.2,49.4,29.65,West,277,5.8,5.8,97,0.00,,---,0.00,VWS V14.01,2013-10-16 06:43:00,
2013-10-16 08:48:00,50.5,49.7,29.65,West,279,4.9,5.4,97,0.00,,---,0.00,VWS V14.01,2013-10-16 06:48:00,
2013-10-16 08:53:00,50.9,50.1,29.65,West,268,6.3,6.3,97,0.00,,---,0.00,VWS V14.01,2013-10-16 06:53:00,
2013-10-16 08:58:00,51.3,50.4,29.65,West,274,3.6,5.4,97,0.00,,---,0.00,VWS V14.01,2013-10-16 06:58:00,
2013-10-16 09:03:00,51.3,50.4,29.65,WNW,286,0.0,4.5,97,0.00,,---,0.00,VWS V14.01,2013-10-16 07:03:00,
2013-10-16 09:08:00,51.3,50.4,29.65,WNW,287,0.0,3.1,97,0.00,,---,0.00,VWS V14.01,2013-10-16 07:08:00,
2013-10-16 09:13:00,51.3,50.4,29.65,NW,304,9.2,9.2,97,0.00,,---,0.00,VWS V14.01,2013-10-16 07:13:00,
2013-10-16 09:18:00,51.3,50.4,29.65,WNW,290,10.5,10.5,97,0.00,,---,0.00,VWS V14.01,2013-10-16 07:18:00,
2013-10-16 09:23:00,51.3,50.4,29.65,West,272,6.7,10.1,97,0.00,,---,0.00,VWS V14.01,2013-10-16 07:23:00,
2013-10-16 09:28:00,51.4,50.6,29.65,SSE,161,6.7,6.9,97,0.00,,---,0.00,VWS V14.01,2013-10-16 07:28:00,
2013-10-16 09:33:00,51.4,50.6,29.65,WNW,290,10.5,11.0,97,0.00,,---,0.00,VWS V14.01,2013-10-16 07:33:00,
2013-10-16 09:38:00,51.4,50.6,29.65,WNW,286,5.8,11.6,97,0.00,,---,0.00,VWS V14.01,2013-10-16 07:38:00,
2013-10-16 09:43:00,51.4,50.6,29.65,WNW,282,6.9,9.6,97,0.00,,---,0.00,VWS V14.01,2013-10-16 07:43:00,
2013-10-16 09:48:00,51.6,50.8,29.65,West,273,8.7,10.1,97,0.00,,---,0.00,VWS V14.01,2013-10-16 07:48:00,
2013-10-16 09:53:00,51.6,50.8,29.65,West,279,8.3,8.7,97,0.00,,---,0.00,VWS V14.01,2013-10-16 07:53:00,
2013-10-16 09:58:00,51.6,50.8,29.65,WNW,283,10.1,10.1,97,0.00,,---,0.00,VWS V14.01,2013-10-16 07:58:00,
2013-10-16 10:03:00,51.6,50.5,29.65,West,278,9.6,10.5,96,0.00,,---,0.00,VWS V14.01,2013-10-16 08:03:00,
2013-10-16 10:08:00,51.6,50.5,29.65,West,276,7.4,8.7,96,0.00,,---,0.00,VWS V14.01,2013-10-16 08:08:00,
2013-10-16 10:13:00,51.6,50.5,29.65,West,270,7.8,12.1,96,0.00,,---,0.00,VWS V14.01,2013-10-16 08:13:00,
2013-10-16 10:18:00,51.8,50.4,29.65,West,278,5.4,6.7,95,0.00,,---,0.00,VWS V14.01,2013-10-16 08:18:00,
2013-10-16 10:23:00,51.8,50.4,29.65,WNW,286,11.6,11.6,95,0.00,,---,0.00,VWS V14.01,2013-10-16 08:23:00,
2013-10-16 10:28:00,51.8,50.1,29.65,West,279,5.8,8.7,94,0.00,,---,0.00,VWS V14.01,2013-10-16 08:28:00,
2013-10-16 10:33:00,52.0,50.0,29.65,WNW,286,10.1,14.8,93,0.00,,---,0.00,VWS V14.01,2013-10-16 08:33:00,
2013-10-16 10:38:00,51.8,49.5,29.65,WNW,296,4.9,7.8,92,0.00,,---,0.00,VWS V14.01,2013-10-16 08:38:00,
2013-10-16 10:43:00,51.8,49.3,29.65,WNW,286,10.1,11.6,91,0.00,,---,0.00,VWS V14.01,2013-10-16 08:43:00,
2013-10-16 10:48:00,51.8,49.0,29.65,WSW,257,0.0,4.0,90,0.00,,---,0.00,VWS V14.01,2013-10-16 08:48:00,
2013-10-16 10:53:00,51.8,48.7,29.65,West,279,5.4,6.3,89,0.00,,---,0.00,VWS V14.01,2013-10-16 08:53:00,
2013-10-16 10:58:00,51.8,48.4,29.65,WNW,287,5.4,7.8,88,0.00,,---,0.00,VWS V14.01,2013-10-16 08:58:00,
2013-10-16 11:03:00,51.6,48.2,29.65,West,274,7.8,7.8,88,0.00,,---,0.00,VWS V14.01,2013-10-16 09:03:00,
2013-10-16 11:08:00,51.6,47.9,29.65,West,272,6.9,7.8,87,0.00,,---,0.00,VWS V14.01,2013-10-16 09:08:00,
2013-10-16 11:13:00,51.4,47.7,29.65,WNW,290,6.3,6.3,87,0.00,,---,0.00,VWS V14.01,2013-10-16 09:13:00,
2013-10-16 11:18:00,51.4,47.4,29.65,WNW,296,6.3,9.6,86,0.00,,---,0.00,VWS V14.01,2013-10-16 09:18:00,
2013-10-16 11:23:00,51.3,47.2,29.65,WNW,288,5.4,5.4,86,0.00,,---,0.00,VWS V14.01,2013-10-16 09:23:00,
2013-10-16 11:28:00,51.3,47.2,29.65,West,277,3.1,4.9,86,0.00,,---,0.00,VWS V14.01,2013-10-16 09:28:00,
2013-10-16 11:33:00,51.3,47.2,29.65,WNW,286,5.4,7.4,86,0.00,,---,0.00,VWS V14.01,2013-10-16 09:33:00,
2013-10-16 11:38:00,51.3,47.2,29.65,WNW,291,6.3,6.3,86,0.00,,---,0.00,VWS V14.01,2013-10-16 09:38:00,
2013-10-16 11:43:00,51.1,47.0,29.65,West,275,6.3,7.4,86,0.00,,---,0.00,VWS V14.01,2013-10-16 09:43:00,
2013-10-16 11:48:00,51.1,47.3,29.65,WNW,290,6.9,8.3,87,0.00,,---,0.00,VWS V14.01,2013-10-16 09:48:00,
2013-10-16 11:53:00,51.1,47.3,29.65,WNW,289,7.4,8.3,87,0.00,,---,0.00,VWS V14.01,2013-10-16 09:53:00,
2013-10-16 11:58:00,51.1,47.3,29.65,West,276,6.9,10.1,87,0.00,,---,0.00,VWS V14.01,2013-10-16 09:58:00,
2013-10-16 12:03:00,51.1,47.3,29.65,West,268,8.3,10.1,87,0.00,,---,0.00,VWS V14.01,2013-10-16 10:03:00,
2013-10-16 12:08:00,50.9,47.2,29.65,West,272,6.7,8.3,87,0.00,,---,0.00,VWS V14.01,2013-10-16 10:08:00,
2013-10-16 12:13:00,50.7,47.3,29.65,WNW,284,5.8,11.0,88,0.00,,---,0.00,VWS V14.01,2013-10-16 10:13:00,
2013-10-16 12:18:00,50.7,47.3,29.65,WNW,293,4.9,9.2,88,0.00,,---,0.00,VWS V14.01,2013-10-16 10:18:00,
2013-10-16 12:23:00,50.7,47.3,29.62,WNW,285,5.8,10.5,88,0.00,,---,0.00,VWS V14.01,2013-10-16 10:23:00,
2013-10-16 12:28:00,50.7,47.3,29.62,WNW,291,8.3,8.7,88,0.00,,---,0.00,VWS V14.01,2013-10-16 10:28:00,
2013-10-16 12:33:00,50.7,47.6,29.62,WNW,293,4.0,11.2,89,0.00,,---,0.00,VWS V14.01,2013-10-16 10:33:00,
2013-10-16 12:38:00,50.7,47.6,29.62,WNW,292,11.2,11.2,89,0.00,,---,0.00,VWS V14.01,2013-10-16 10:38:00,
2013-10-16 12:43:00,50.5,47.4,29.62,West,270,9.2,11.2,89,0.00,,---,0.00,VWS V14.01,2013-10-16 10:43:00,
2013-10-16 12:48:00,50.5,47.7,29.62,West,280,10.1,11.6,90,0.00,,---,0.00,VWS V14.01,2013-10-16 10:48:00,
2013-10-16 12:53:00,50.5,47.7,29.62,WNW,283,6.9,11.2,90,0.00,,---,0.00,VWS V14.01,2013-10-16 10:53:00,
2013-10-16 12:58:00,50.5,47.7,29.62,West,267,7.4,11.2,90,0.00,,---,0.00,VWS V14.01,2013-10-16 10:58:00,
2013-10-16 13:03:00,50.4,47.5,29.62,West,278,11.6,11.6,90,0.00,,---,0.00,VWS V14.01,2013-10-16 11:03:00,
2013-10-16 13:08:00,50.4,47.5,29.62,West,273,4.9,11.6,90,0.00,,---,0.00,VWS V14.01,2013-10-16 11:08:00,
2013-10-16 13:13:00,50.4,47.5,29.62,WNW,292,9.6,14.3,90,0.00,,---,0.00,VWS V14.01,2013-10-16 11:13:00,
2013-10-16 13:18:00,50.4,47.8,29.62,NNW,328,4.5,11.6,91,0.00,,---,0.00,VWS V14.01,2013-10-16 11:18:00,
2013-10-16 13:23:00,50.4,47.8,29.62,West,280,7.4,9.2,91,0.00,,---,0.00,VWS V14.01,2013-10-16 11:23:00,
2013-10-16 13:28:00,50.4,47.8,29.62,WNW,293,11.0,13.9,91,0.00,,---,0.00,VWS V14.01,2013-10-16 11:28:00,
2013-10-16 13:33:00,50.4,47.8,29.62,West,260,11.2,14.8,91,0.00,,---,0.00,VWS V14.01,2013-10-16 11:33:00,
2013-10-16 13:38:00,50.4,47.8,29.62,WNW,286,10.1,14.3,91,0.00,,---,0.00,VWS V14.01,2013-10-16 11:38:00,
2013-10-16 13:43:00,50.4,47.8,29.62,WNW,289,10.5,15.2,91,0.00,,---,0.00,VWS V14.01,2013-10-16 11:43:00,
2013-10-16 13:48:00,50.4,47.8,29.62,WNW,299,9.6,12.1,91,0.00,,---,0.00,VWS V14.01,2013-10-16 11:48:00,
2013-10-16 13:53:00,50.4,47.8,29.62,WNW,297,9.2,11.0,91,0.00,,---,0.00,VWS V14.01,2013-10-16 11:53:00,
2013-10-16 13:58:00,50.4,47.8,29.62,West,278,9.6,9.6,91,0.00,,---,0.00,VWS V14.01,2013-10-16 11:58:00,
2013-10-16 14:03:00,50.4,47.8,29.62,NW,309,7.4,10.5,91,0.00,,---,0.00,VWS V14.01,2013-10-16 12:03:00,
2013-10-16 14:08:00,50.4,47.8,29.62,West,276,11.2,11.6,91,0.00,,---,0.00,VWS V14.01,2013-10-16 12:08:00,
2013-10-16 14:13:00,50.4,47.8,29.62,WNW,294,12.1,14.3,91,0.00,,---,0.00,VWS V14.01,2013-10-16 12:13:00,
2013-10-16 14:18:00,50.4,47.8,29.62,WNW,284,13.4,17.7,91,0.00,,---,0.00,VWS V14.01,2013-10-16 12:18:00,
2013-10-16 14:23:00,50.4,47.8,29.62,NW,309,10.5,15.2,91,0.00,,---,0.00,VWS V14.01,2013-10-16 12:23:00,
2013-10-16 14:28:00,50.4,47.8,29.62,West,268,3.1,12.1,91,0.00,,---,0.00,VWS V14.01,2013-10-16 12:28:00,
2013-10-16 14:33:00,50.4,47.8,29.62,NW,305,10.5,13.9,91,0.00,,---,0.00,VWS V14.01,2013-10-16 12:33:00,
2013-10-16 14:38:00,50.4,47.8,29.62,West,274,15.2,19.0,91,0.00,,---,0.00,VWS V14.01,2013-10-16 12:38:00,
2013-10-16 14:43:00,50.4,47.8,29.62,WNW,286,11.2,15.4,91,0.00,,---,0.00,VWS V14.01,2013-10-16 12:43:00,
2013-10-16 14:48:00,50.5,48.0,29.62,WNW,288,13.0,17.7,91,0.00,,---,0.00,VWS V14.01,2013-10-16 12:48:00,
2013-10-16 14:53:00,50.5,48.0,29.62,West,272,9.2,9.2,91,0.00,,---,0.00,VWS V14.01,2013-10-16 12:53:00,
2013-10-16 14:58:00,50.7,48.2,29.62,NW,308,13.0,15.2,91,0.00,,---,0.00,VWS V14.01,2013-10-16 12:58:00,
2013-10-16 15:03:00,50.7,47.9,29.62,West,281,12.5,17.2,90,0.00,,---,0.00,VWS V14.01,2013-10-16 13:03:00,
2013-10-16 15:08:00,50.7,47.9,29.59,West,276,11.0,13.4,90,0.00,,---,0.00,VWS V14.01,2013-10-16 13:08:00,
2013-10-16 15:13:00,50.7,47.9,29.59,WNW,293,9.2,13.9,90,0.00,,---,0.00,VWS V14.01,2013-10-16 13:13:00,
2013-10-16 15:18:00,50.7,47.9,29.59,West,271,9.6,12.1,90,0.00,,---,0.00,VWS V14.01,2013-10-16 13:18:00,
2013-10-16 15:23:00,50.7,47.9,29.59,WNW,299,10.1,11.2,90,0.00,,---,0.00,VWS V14.01,2013-10-16 13:23:00,
2013-10-16 15:28:00,50.7,47.9,29.59,WNW,290,9.6,12.1,90,0.00,,---,0.00,VWS V14.01,2013-10-16 13:28:00,
2013-10-16 15:33:00,50.7,47.6,29.59,West,278,12.5,17.2,89,0.00,,---,0.00,VWS V14.01,2013-10-16 13:33:00,
2013-10-16 15:38:00,50.7,47.6,29.59,West,276,7.4,11.0,89,0.00,,---,0.00,VWS V14.01,2013-10-16 13:38:00,
2013-10-16 15:43:00,50.7,47.6,29.59,WNW,287,7.8,11.2,89,0.00,,---,0.00,VWS V14.01,2013-10-16 13:43:00,
2013-10-16 15:48:00,50.7,47.6,29.59,West,277,7.4,8.7,89,0.00,,---,0.00,VWS V14.01,2013-10-16 13:48:00,
2013-10-16 15:53:00,50.9,47.8,29.59,WNW,289,11.2,13.0,89,0.00,,---,0.00,VWS V14.01,2013-10-16 13:53:00,
2013-10-16 15:58:00,50.9,47.8,29.59,WNW,288,7.8,9.6,89,0.00,,---,0.00,VWS V14.01,2013-10-16 13:58:00,
2013-10-16 16:03:00,50.9,47.8,29.59,West,279,8.3,8.7,89,0.00,,---,0.00,VWS V14.01,2013-10-16 14:03:00,
2013-10-16 16:08:00,50.9,47.8,29.59,West,280,10.5,13.4,89,0.00,,---,0.00,VWS V14.01,2013-10-16 14:08:00,
2013-10-16 16:13:00,50.7,47.3,29.59,WNW,295,15.2,15.4,88,0.00,,---,0.00,VWS V14.01,2013-10-16 14:13:00,
2013-10-16 16:18:00,50.7,47.3,29.59,West,266,7.4,15.2,88,0.00,,---,0.00,VWS V14.01,2013-10-16 14:18:00,
2013-10-16 16:23:00,50.5,47.1,29.59,WNW,297,9.6,11.0,88,0.00,,---,0.00,VWS V14.01,2013-10-16 14:23:00,
2013-10-16 16:28:00,50.5,46.8,29.59,West,274,9.2,15.9,87,0.00,,---,0.00,VWS V14.01,2013-10-16 14:28:00,
2013-10-16 16:33:00,50.4,46.6,29.59,West,274,9.6,13.4,87,0.00,,---,0.00,VWS V14.01,2013-10-16 14:33:00,
2013-10-16 16:38:00,50.2,46.5,29.59,West,268,9.2,13.4,87,0.00,,---,0.00,VWS V14.01,2013-10-16 14:38:00,
2013-10-16 16:43:00,50.0,46.3,29.59,WNW,290,13.9,15.2,87,0.00,,---,0.00,VWS V14.01,2013-10-16 14:43:00,
2013-10-16 16:48:00,49.8,46.1,29.59,WNW,289,11.2,13.4,87,0.00,,---,0.00,VWS V14.01,2013-10-16 14:48:00,
2013-10-16 16:53:00,49.6,45.9,29.59,WNW,287,19.5,22.4,87,0.00,,---,0.00,VWS V14.01,2013-10-16 14:53:00,
2013-10-16 16:58:00,49.5,45.8,29.59,WNW,291,14.3,19.0,87,0.00,,---,0.00,VWS V14.01,2013-10-16 14:58:00,
2013-10-16 17:03:00,49.3,45.6,29.59,West,273,14.8,20.6,87,0.00,,---,0.00,VWS V14.01,2013-10-16 15:03:00,
2013-10-16 17:08:00,49.3,45.6,29.59,WNW,298,19.0,19.0,87,0.00,,---,0.00,VWS V14.01,2013-10-16 15:08:00,
2013-10-16 17:13:00,49.1,45.4,29.59,West,277,12.1,14.8,87,0.00,,---,0.00,VWS V14.01,2013-10-16 15:13:00,
2013-10-16 17:18:00,49.1,45.7,29.59,West,276,16.3,18.1,88,0.00,,---,0.00,VWS V14.01,2013-10-16 15:18:00,
2013-10-16 17:23:00,48.9,45.5,29.59,West,268,9.6,19.0,88,0.00,,---,0.00,VWS V14.01,2013-10-16 15:23:00,
2013-10-16 17:28:00,48.9,45.5,29.59,West,281,16.3,19.0,88,0.00,,---,0.00,VWS V14.01,2013-10-16 15:28:00,
2013-10-16 17:33:00,48.9,45.5,29.59,WNW,293,14.3,14.3,88,0.00,,---,0.00,VWS V14.01,2013-10-16 15:33:00,
2013-10-16 17:38:00,48.7,45.3,29.59,West,274,13.4,17.2,88,0.00,,---,0.00,VWS V14.01,2013-10-16 15:38:00,
2013-10-16 17:43:00,48.7,45.7,29.59,WNW,288,20.6,24.2,89,0.00,,---,0.00,VWS V14.01,2013-10-16 15:43:00,
2013-10-16 17:48:00,48.7,45.7,29.59,NW,304,19.5,19.5,89,0.00,,---,0.00,VWS V14.01,2013-10-16 15:48:00,
2013-10-16 17:53:00,48.7,45.7,29.59,WNW,283,15.9,15.9,89,0.00,,---,0.00,VWS V14.01,2013-10-16 15:53:00,
2013-10-16 17:58:00,48.7,45.7,29.59,West,279,18.1,19.0,89,0.00,,---,0.00,VWS V14.01,2013-10-16 15:58:00,
2013-10-16 18:03:00,48.7,45.7,29.59,WNW,296,15.4,15.9,89,0.00,,---,0.00,VWS V14.01,2013-10-16 16:03:00,
2013-10-16 18:08:00,48.7,45.7,29.59,West,275,21.0,21.0,89,0.00,,---,0.00,VWS V14.01,2013-10-16 16:08:00,
2013-10-16 18:13:00,48.6,45.8,29.59,West,268,13.4,14.3,90,0.00,,---,0.00,VWS V14.01,2013-10-16 16:13:00,
2013-10-16 18:18:00,48.6,45.8,29.59,West,268,12.5,14.8,90,0.00,,---,0.00,VWS V14.01,2013-10-16 16:18:00,
2013-10-16 18:23:00,48.6,45.8,29.59,WNW,285,15.4,15.4,90,0.00,,---,0.00,VWS V14.01,2013-10-16 16:23:00,
2013-10-16 18:28:00,48.6,45.8,29.59,WNW,288,17.7,17.7,90,0.00,,---,0.00,VWS V14.01,2013-10-16 16:28:00,
2013-10-16 18:33:00,48.6,45.8,29.59,West,267,13.4,17.7,90,0.00,,---,0.00,VWS V14.01,2013-10-16 16:33:00,
2013-10-16 18:38:00,48.6,45.8,29.62,WNW,296,17.2,21.0,90,0.00,,---,0.00,VWS V14.01,2013-10-16 16:38:00,
2013-10-16 18:43:00,48.6,45.8,29.62,West,276,17.2,23.7,90,0.00,,---,0.00,VWS V14.01,2013-10-16 16:43:00,
2013-10-16 18:48:00,48.6,45.8,29.62,NW,312,18.1,21.9,90,0.00,,---,0.00,VWS V14.01,2013-10-16 16:48:00,
2013-10-16 18:53:00,48.6,45.8,29.62,WNW,287,14.8,17.2,90,0.00,,---,0.00,VWS V14.01,2013-10-16 16:53:00,
2013-10-16 18:58:00,48.7,45.7,29.62,NW,304,11.2,19.0,89,0.00,,---,0.00,VWS V14.01,2013-10-16 16:58:00,
2013-10-16 19:03:00,48.7,45.7,29.62,West,278,11.2,15.2,89,0.00,,---,0.00,VWS V14.01,2013-10-16 17:03:00,
2013-10-16 19:08:00,48.7,45.7,29.62,WNW,302,14.3,18.1,89,0.00,,---,0.00,VWS V14.01,2013-10-16 17:08:00,
2013-10-16 19:13:00,48.7,45.7,29.62,West,274,16.3,17.7,89,0.00,,---,0.00,VWS V14.01,2013-10-16 17:13:00,
2013-10-16 19:18:00,48.7,45.7,29.62,NW,311,11.2,15.2,89,0.00,,---,0.00,VWS V14.01,2013-10-16 17:18:00,
2013-10-16 19:23:00,48.7,45.7,29.65,WNW,301,5.8,19.0,89,0.00,,---,0.00,VWS V14.01,2013-10-16 17:23:00,
2013-10-16 19:28:00,48.7,45.7,29.65,WNW,294,17.2,19.9,89,0.00,,---,0.00,VWS V14.01,2013-10-16 17:28:00,
2013-10-16 19:33:00,48.7,45.7,29.65,NW,310,11.2,21.5,89,0.00,,---,0.00,VWS V14.01,2013-10-16 17:33:00,
2013-10-16 19:38:00,48.7,45.7,29.65,NW,310,19.5,19.5,89,0.00,,---,0.00,VWS V14.01,2013-10-16 17:38:00,
2013-10-16 19:43:00,48.7,45.7,29.65,West,280,15.9,21.9,89,0.00,,---,0.00,VWS V14.01,2013-10-16 17:43:00,
2013-10-16 19:48:00,48.7,45.7,29.65,WNW,284,17.7,18.1,89,0.00,,---,0.00,VWS V14.01,2013-10-16 17:48:00,
2013-10-16 19:53:00,48.9,45.8,29.65,WNW,288,14.8,17.2,89,0.00,,---,0.00,VWS V14.01,2013-10-16 17:53:00,
2013-10-16 19:59:00,48.7,45.7,29.65,WNW,287,12.5,14.8,89,0.00,,---,0.00,VWS V14.01,2013-10-16 17:59:00,
2013-10-16 20:04:00,48.7,45.7,29.65,WNW,287,11.6,13.4,89,0.00,,---,0.00,VWS V14.01,2013-10-16 18:04:00,
2013-10-16 20:09:00,48.7,45.9,29.68,WNW,288,14.3,15.9,90,0.00,,---,0.00,VWS V14.01,2013-10-16 18:09:00,
2013-10-16 20:14:00,48.7,45.9,29.68,WNW,298,13.4,19.5,90,0.00,,---,0.00,VWS V14.01,2013-10-16 18:14:00,
2013-10-16 20:19:00,48.7,45.9,29.68,West,268,16.3,17.2,90,0.00,,---,0.00,VWS V14.01,2013-10-16 18:19:00,
2013-10-16 20:24:00,48.9,46.1,29.68,West,278,11.2,14.3,90,0.00,,---,0.00,VWS V14.01,2013-10-16 18:24:00,
2013-10-16 20:29:00,48.9,46.1,29.68,West,271,13.9,18.6,90,0.00,,---,0.00,VWS V14.01,2013-10-16 18:29:00,
2013-10-16 20:30:00,48.9,46.1,29.68,WNW,293,12.1,20.1,90,0.00,,---,0.00,VWS V14.01,2013-10-16 18:30:00,
2013-10-16 20:35:00,49.1,46.3,29.68,WNW,284,13.9,16.3,90,0.00,,---,0.00,VWS V14.01,2013-10-16 18:35:00,
2013-10-16 20:40:00,49.1,46.3,29.68,West,262,12.5,14.3,90,0.00,,---,0.00,VWS V14.01,2013-10-16 18:40:00,
2013-10-16 20:45:00,49.3,46.2,29.68,West,271,13.9,13.9,89,0.00,,---,0.00,VWS V14.01,2013-10-16 18:45:00,
2013-10-16 20:50:00,49.3,46.2,29.68,WNW,283,15.4,15.4,89,0.00,,---,0.00,VWS V14.01,2013-10-16 18:50:00,
2013-10-16 20:55:00,49.5,46.4,29.68,West,280,17.7,20.6,89,0.00,,---,0.00,VWS V14.01,2013-10-16 18:55:00,
2013-10-16 21:00:00,49.5,46.4,29.68,WNW,288,15.2,20.1,89,0.00,,---,0.00,VWS V14.01,2013-10-16 19:00:00,
2013-10-16 21:05:00,49.5,46.4,29.68,WNW,303,13.0,15.4,89,0.00,,---,0.00,VWS V14.01,2013-10-16 19:05:00,
2013-10-16 21:10:00,49.6,46.5,29.68,WNW,296,13.9,16.3,89,0.00,,---,0.00,VWS V14.01,2013-10-16 19:10:00,
2013-10-16 21:15:00,49.6,46.5,29.68,WNW,286,8.7,13.4,89,0.00,,---,0.00,VWS V14.01,2013-10-16 19:15:00,
2013-10-16 21:20:00,49.6,46.5,29.68,West,280,11.0,12.1,89,0.00,,---,0.00,VWS V14.01,2013-10-16 19:20:00,
2013-10-16 21:25:00,49.8,46.7,29.68,WNW,296,11.0,15.2,89,0.00,,---,0.00,VWS V14.01,2013-10-16 19:25:00,
2013-10-16 21:30:00,49.8,46.7,29.68,WNW,288,10.5,14.3,89,0.00,,---,0.00,VWS V14.01,2013-10-16 19:30:00,
2013-10-16 21:35:00,50.0,46.9,29.71,WNW,285,8.3,13.4,89,0.00,,---,0.00,VWS V14.01,2013-10-16 19:35:00,
2013-10-16 21:41:00,50.0,46.9,29.71,West,275,11.6,13.4,89,0.00,,---,0.00,VWS V14.01,2013-10-16 19:41:00,
2013-10-16 21:46:00,50.0,46.9,29.71,West,274,8.7,8.7,89,0.00,,---,0.00,VWS V14.01,2013-10-16 19:46:00,
2013-10-16 21:51:00,50.0,46.9,29.71,WNW,290,7.8,9.6,89,0.00,,---,0.00,VWS V14.01,2013-10-16 19:51:00,
2013-10-16 21:56:00,50.0,46.9,29.71,West,266,10.1,11.0,89,0.00,,---,0.00,VWS V14.01,2013-10-16 19:56:00,
2013-10-16 22:01:00,49.8,46.7,29.71,WNW,284,8.3,11.6,89,0.00,,---,0.00,VWS V14.01,2013-10-16 20:01:00,
2013-10-16 22:06:00,49.8,46.7,29.71,West,271,5.8,11.0,89,0.00,,---,0.00,VWS V14.01,2013-10-16 20:06:00,
2013-10-16 22:11:00,49.8,46.7,29.71,WNW,286,8.7,11.6,89,0.00,,---,0.00,VWS V14.01,2013-10-16 20:11:00,
2013-10-16 22:16:00,50.0,46.9,29.71,WNW,286,11.2,11.6,89,0.00,,---,0.00,VWS V14.01,2013-10-16 20:16:00,
2013-10-16 22:21:00,50.2,47.1,29.71,NW,307,13.0,13.4,89,0.00,,---,0.00,VWS V14.01,2013-10-16 20:21:00,
2013-10-16 22:26:00,50.2,47.1,29.71,WNW,293,11.2,14.3,89,0.00,,---,0.00,VWS V14.01,2013-10-16 20:26:00,
2013-10-16 22:31:00,50.4,47.2,29.71,West,273,15.4,15.4,89,0.00,,---,0.00,VWS V14.01,2013-10-16 20:31:00,
2013-10-16 22:36:00,50.5,47.1,29.71,WNW,293,15.4,15.4,88,0.00,,---,0.00,VWS V14.01,2013-10-16 20:36:00,
2013-10-16 22:41:00,50.7,47.3,29.71,West,278,13.0,16.3,88,0.00,,---,0.00,VWS V14.01,2013-10-16 20:41:00,
2013-10-16 22:46:00,51.1,47.3,29.71,West,271,15.2,15.2,87,0.00,,---,0.00,VWS V14.01,2013-10-16 20:46:00,
2013-10-16 22:51:00,51.3,47.2,29.71,WNW,285,14.3,14.3,86,0.00,,---,0.00,VWS V14.01,2013-10-16 20:51:00,
2013-10-16 22:56:00,51.4,47.1,29.71,WNW,303,14.3,16.3,85,0.00,,---,0.00,VWS V14.01,2013-10-16 20:56:00,
2013-10-16 23:01:00,51.6,47.0,29.71,WNW,288,13.4,15.2,84,0.00,,---,0.00,VWS V14.01,2013-10-16 21:01:00,
2013-10-16 23:06:00,51.6,46.6,29.71,WNW,289,15.4,17.2,83,0.00,,---,0.00,VWS V14.01,2013-10-16 21:06:00,
2013-10-16 23:11:00,52.0,47.0,29.71,WNW,286,11.2,15.9,83,0.00,,---,0.00,VWS V14.01,2013-10-16 21:11:00,
2013-10-16 23:16:00,52.0,46.7,29.71,WNW,287,12.1,15.2,82,0.00,,---,0.00,VWS V14.01,2013-10-16 21:16:00,
2013-10-16 23:21:00,52.3,46.7,29.71,NNW,331,7.4,14.8,81,0.00,,---,0.00,VWS V14.01,2013-10-16 21:21:00,
2013-10-16 23:26:00,52.5,46.5,29.71,NW,305,12.1,14.8,80,0.00,,---,0.00,VWS V14.01,2013-10-16 21:26:00,
2013-10-16 23:31:00,52.5,46.2,29.71,WNW,299,15.2,17.7,79,0.00,,---,0.00,VWS V14.01,2013-10-16 21:31:00,
2013-10-16 23:36:00,52.7,46.0,29.71,WNW,300,16.8,16.8,78,0.00,,---,0.00,VWS V14.01,2013-10-16 21:36:00,
2013-10-16 23:41:00,52.7,45.7,29.71,WNW,282,12.5,13.0,77,0.00,,---,0.00,VWS V14.01,2013-10-16 21:41:00,
2013-10-16 23:46:00,52.7,45.4,29.71,WNW,296,14.3,15.4,76,0.00,,---,0.00,VWS V14.01,2013-10-16 21:46:00,
2013-10-16 23:51:00,52.9,45.5,29.74,West,279,11.2,16.3,76,0.00,,---,0.00,VWS V14.01,2013-10-16 21:51:00,
2013-10-16 23:56:00,52.9,45.5,29.74,West,272,12.1,13.0,76,0.00,,---,0.00,VWS V14.01,2013-10-16 21:56:00,